This is the latest recevied weather packets stored in our database for station/object KC4ANB. If no packets are shown the sender has not sent any weather packets the latest 10 day(s).
| Time | Temp. | Humidity | Pressure | Rain* | Wind** | Luminosity | Snow |
|---|---|---|---|---|---|---|---|
| 1777876765 | 9.44° C | 84% | 1016.4 hPa | 0 mm | - | - | - |
| 1777876157 | 9.44° C | 83% | 1016.6 hPa | 0 mm | - | - | - |
| 1777875556 | 9.44° C | 84% | 1016.7 hPa | 0 mm | - | - | - |
| 1777871956 | 10° C | 82% | 1017.3 hPa | 0 mm | - | - | - |
| 1777870155 | 10° C | 81% | 1017.3 hPa | 0 mm | - | - | - |
| 1777867157 | 10.56° C | 77% | 1017.6 hPa | 0 mm | - | - | - |
| 1777864157 | 11.11° C | 75% | 1017.8 hPa | 0 mm | - | - | - |
| 1777861757 | 12.22° C | 74% | 1017.4 hPa | 0 mm | - | - | - |
| 1777857577 | 13.33° C | 71% | 1016.8 hPa | 0 mm | - | - | - |
| 1777856357 | 14.44° C | 67% | 1016.7 hPa | 0 mm | - | - | - |
| 1777855177 | 15.56° C | 64% | 1016.5 hPa | 0 mm | - | - | - |
| 1777852157 | 17.78° C | 51% | 1016.4 hPa | 0 mm | - | - | - |
| 1777850358 | 18.89° C | 45% | 1016.2 hPa | 0 mm | - | - | - |
| 1777848557 | 18.89° C | 46% | 1016.6 hPa | 0 mm | - | - | - |
| 1777826956 | 17.78° C | 47% | 1021 hPa | 0 mm | - | - | - |
| 1777821556 | 16.11° C | 53% | 1021.2 hPa | 0 mm | - | - | - |
| 1777817956 | 15.56° C | 64% | 1021 hPa | 0 mm | - | - | - |
| 1777810156 | 8.33° C | 88% | 1020 hPa | 0 mm | - | - | - |
| 1777807196 | 6.67° C | 89% | 1019.4 hPa | 0 mm | - | - | - |
| 1777805957 | 6.67° C | 88% | 1019.4 hPa | 0 mm | - | - | - |
| 1777805378 | 7.22° C | 87% | 1019.3 hPa | 0 mm | - | - | - |
| 1777804778 | 7.22° C | 86% | 1019.1 hPa | 0 mm | - | - | - |
| 1777804178 | 7.78° C | 84% | 1018.9 hPa | 0 mm | - | - | - |
| 1777802957 | 8.33° C | 82% | 1018.7 hPa | 0 mm | - | - | - |
| 1777801157 | 8.89° C | 82% | 1018.7 hPa | 0 mm | - | - | - |
* Rain latest hour (hover to see other rain measurements)
** Current wind speed in m/s (hover to see current wind gust speed)